sensor_id;sensor_type;location;lat;lon;timestamp;pressure;altitude;pressure_sealevel;temperature;humidity
8280;BME280;8335;42.646;23.380;2023-05-23T00:01:03;144603.88;;;12.24;100.00
8280;BME280;8335;42.646;23.380;2023-05-23T00:03:31;144627.53;;;12.33;100.00
8280;BME280;8335;42.646;23.380;2023-05-23T00:05:58;144630.00;;;12.34;100.00
8280;BME280;8335;42.646;23.380;2023-05-23T00:08:25;144625.03;;;12.32;100.00
8280;BME280;8335;42.646;23.380;2023-05-23T00:10:52;144632.50;;;12.35;100.00
8280;BME280;8335;42.646;23.380;2023-05-23T00:13:18;144630.00;;;12.34;100.00
8280;BME280;8335;42.646;23.380;2023-05-23T00:15:47;144620.06;;;12.30;100.00
8280;BME280;8335;42.646;23.380;2023-05-23T00:18:14;144587.69;;;12.17;100.00
8280;BME280;8335;42.646;23.380;2023-05-23T00:20:41;144613.81;;;12.28;100.00
8280;BME280;8335;42.646;23.380;2023-05-23T00:23:08;144613.81;;;12.28;100.00
8280;BME280;8335;42.646;23.380;2023-05-23T00:25:35;144598.91;;;12.22;100.00
8280;BME280;8335;42.646;23.380;2023-05-23T00:28:03;144586.47;;;12.17;100.00
8280;BME280;8335;42.646;23.380;2023-05-23T00:30:31;144575.25;;;12.12;100.00
8280;BME280;8335;42.646;23.380;2023-05-23T00:32:59;144571.53;;;12.10;100.00
8280;BME280;8335;42.646;23.380;2023-05-23T00:35:26;144560.31;;;12.06;100.00
8280;BME280;8335;42.646;23.380;2023-05-23T00:37:53;144422.13;;;11.49;100.00
8280;BME280;8335;42.646;23.380;2023-05-23T00:40:20;144542.88;;;11.99;100.00
8280;BME280;8335;42.646;23.380;2023-05-23T00:42:47;144534.19;;;11.95;100.00
8280;BME280;8335;42.646;23.380;2023-05-23T00:45:14;144520.47;;;11.90;100.00
8280;BME280;8335;42.646;23.380;2023-05-23T00:47:42;144532.94;;;11.95;100.00
8280;BME280;8335;42.646;23.380;2023-05-23T00:50:12;144510.50;;;11.85;100.00
8280;BME280;8335;42.646;23.380;2023-05-23T00:52:43;144520.47;;;11.90;100.00
8280;BME280;8335;42.646;23.380;2023-05-23T00:55:11;144493.03;;;11.78;100.00
8280;BME280;8335;42.646;23.380;2023-05-23T00:57:38;144498.09;;;11.80;100.00
8280;BME280;8335;42.646;23.380;2023-05-23T01:00:07;144478.16;;;11.72;100.00
8280;BME280;8335;42.646;23.380;2023-05-23T01:02:37;144484.34;;;11.75;100.00
8280;BME280;8335;42.646;23.380;2023-05-23T01:05:06;144480.63;;;11.73;100.00
8280;BME280;8335;42.646;23.380;2023-05-23T01:07:34;144481.88;;;11.74;100.00
8280;BME280;8335;42.646;23.380;2023-05-23T01:10:01;144463.22;;;11.66;100.00
8280;BME280;8335;42.646;23.380;2023-05-23T01:12:35;144461.97;;;11.66;100.00
8280;BME280;8335;42.646;23.380;2023-05-23T01:15:09;144419.66;;;11.48;100.00
8280;BME280;8335;42.646;23.380;2023-05-23T01:17:42;144454.47;;;11.63;100.00
8280;BME280;8335;42.646;23.380;2023-05-23T01:20:16;144473.16;;;11.70;100.00
8280;BME280;8335;42.646;23.380;2023-05-23T01:23:09;144478.16;;;11.72;100.00
8280;BME280;8335;42.646;23.380;2023-05-23T01:25:48;144456.97;;;11.64;100.00
8280;BME280;8335;42.646;23.380;2023-05-23T01:28:27;144471.91;;;11.70;100.00
8280;BME280;8335;42.646;23.380;2023-05-23T01:30:57;144468.19;;;11.68;100.00
8280;BME280;8335;42.646;23.380;2023-05-23T01:33:27;144452.00;;;11.62;100.00
8280;BME280;8335;42.646;23.380;2023-05-23T01:35:55;144463.22;;;11.66;100.00
8280;BME280;8335;42.646;23.380;2023-05-23T01:38:23;144448.28;;;11.60;100.00
8280;BME280;8335;42.646;23.380;2023-05-23T01:40:50;144450.75;;;11.61;100.00
8280;BME280;8335;42.646;23.380;2023-05-23T01:43:17;144453.25;;;11.62;100.00
8280;BME280;8335;42.646;23.380;2023-05-23T01:45:45;144459.50;;;11.65;100.00
8280;BME280;8335;42.646;23.380;2023-05-23T01:48:14;144461.97;;;11.66;100.00
8280;BME280;8335;42.646;23.380;2023-05-23T01:50:43;144466.94;;;11.68;100.00
8280;BME280;8335;42.646;23.380;2023-05-23T01:53:11;144447.03;;;11.60;100.00
8280;BME280;8335;42.646;23.380;2023-05-23T01:55:39;144448.28;;;11.60;100.00
8280;BME280;8335;42.646;23.380;2023-05-23T01:58:07;144428.38;;;11.52;100.00
8280;BME280;8335;42.646;23.380;2023-05-23T02:00:34;144391.06;;;11.37;100.00
8280;BME280;8335;42.646;23.380;2023-05-23T02:03:03;144378.63;;;11.32;100.00
8280;BME280;8335;42.646;23.380;2023-05-23T02:05:30;144377.38;;;11.31;100.00
8280;BME280;8335;42.646;23.380;2023-05-23T02:07:57;144381.09;;;11.33;100.00
8280;BME280;8335;42.646;23.380;2023-05-23T02:10:23;144371.13;;;11.28;100.00
8280;BME280;8335;42.646;23.380;2023-05-23T02:12:50;144372.41;;;11.29;100.00
8280;BME280;8335;42.646;23.380;2023-05-23T02:15:17;144350.00;;;11.20;100.00
8280;BME280;8335;42.646;23.380;2023-05-23T02:17:44;144364.91;;;11.26;100.00
8280;BME280;8335;42.646;23.380;2023-05-23T02:20:14;144358.72;;;11.23;100.00
8280;BME280;8335;42.646;23.380;2023-05-23T02:22:43;144359.97;;;11.24;100.00
8280;BME280;8335;42.646;23.380;2023-05-23T02:25:10;144342.53;;;11.17;100.00
8280;BME280;8335;42.646;23.380;2023-05-23T02:27:36;144343.78;;;11.17;100.00
8280;BME280;8335;42.646;23.380;2023-05-23T02:30:04;144335.06;;;11.14;100.00
8280;BME280;8335;42.646;23.380;2023-05-23T02:32:31;144325.13;;;11.10;100.00
8280;BME280;8335;42.646;23.380;2023-05-23T02:34:58;144295.28;;;10.97;100.00
8280;BME280;8335;42.646;23.380;2023-05-23T02:37:26;144266.66;;;10.86;100.00
8280;BME280;8335;42.646;23.380;2023-05-23T02:39:52;144253.03;;;10.80;100.00
8280;BME280;8335;42.646;23.380;2023-05-23T02:42:19;144235.63;;;10.73;100.00
8280;BME280;8335;42.646;23.380;2023-05-23T02:44:46;144224.41;;;10.68;100.00
8280;BME280;8335;42.646;23.380;2023-05-23T02:47:13;144200.81;;;10.59;100.00
8280;BME280;8335;42.646;23.380;2023-05-23T02:49:40;144203.28;;;10.60;100.00
8280;BME280;8335;42.646;23.380;2023-05-23T02:52:06;144204.53;;;10.60;100.00
8280;BME280;8335;42.646;23.380;2023-05-23T02:54:34;144189.59;;;10.54;100.00
8280;BME280;8335;42.646;23.380;2023-05-23T02:57:01;144173.44;;;10.47;100.00
8280;BME280;8335;42.646;23.380;2023-05-23T02:59:28;144159.75;;;10.42;100.00
8280;BME280;8335;42.646;23.380;2023-05-23T03:01:55;144142.34;;;10.35;100.00
8280;BME280;8335;42.646;23.380;2023-05-23T03:04:22;144144.88;;;10.36;100.00
8280;BME280;8335;42.646;23.380;2023-05-23T03:06:49;144141.13;;;10.34;100.00
8280;BME280;8335;42.646;23.380;2023-05-23T03:09:19;144128.72;;;10.29;100.00
8280;BME280;8335;42.646;23.380;2023-05-23T03:11:47;144123.72;;;10.27;100.00
8280;BME280;8335;42.646;23.380;2023-05-23T03:14:14;144128.72;;;10.29;100.00
8280;BME280;8335;42.646;23.380;2023-05-23T03:16:41;144137.41;;;10.33;100.00
8280;BME280;8335;42.646;23.380;2023-05-23T03:19:07;144157.28;;;10.41;100.00
8280;BME280;8335;42.646;23.380;2023-05-23T03:21:34;144194.56;;;10.56;100.00
8280;BME280;8335;42.646;23.380;2023-05-23T03:24:01;144215.72;;;10.65;100.00
8280;BME280;8335;42.646;23.380;2023-05-23T03:26:28;144267.94;;;10.86;100.00
8280;BME280;8335;42.646;23.380;2023-05-23T03:28:56;144322.66;;;11.09;100.00
8280;BME280;8335;42.646;23.380;2023-05-23T03:31:23;144394.78;;;11.38;100.00
8280;BME280;8335;42.646;23.380;2023-05-23T03:33:50;144458.19;;;11.64;100.00
8280;BME280;8335;42.646;23.380;2023-05-23T03:36:18;144526.69;;;11.92;100.00
8280;BME280;8335;42.646;23.380;2023-05-23T03:38:46;144615.06;;;12.28;100.00
8280;BME280;8335;42.646;23.380;2023-05-23T03:41:13;144713.44;;;12.68;100.00
8280;BME280;8335;42.646;23.380;2023-05-23T03:43:39;144811.84;;;13.09;100.00
8280;BME280;8335;42.646;23.380;2023-05-23T03:46:07;144886.63;;;13.39;100.00
8280;BME280;8335;42.646;23.380;2023-05-23T03:48:34;144925.22;;;13.55;100.00
8280;BME280;8335;42.646;23.380;2023-05-23T03:51:01;144938.94;;;13.61;100.00
8280;BME280;8335;42.646;23.380;2023-05-23T03:53:28;145043.63;;;14.03;100.00
8280;BME280;8335;42.646;23.380;2023-05-23T03:55:55;145133.41;;;14.40;97.32
8280;BME280;8335;42.646;23.380;2023-05-23T03:58:21;145226.97;;;14.78;95.40
8280;BME280;8335;42.646;23.380;2023-05-23T04:00:48;145294.31;;;15.06;92.96
8280;BME280;8335;42.646;23.380;2023-05-23T04:03:19;145271.88;;;14.97;90.64
8280;BME280;8335;42.646;23.380;2023-05-23T04:05:45;145534.00;;;16.04;89.12
8280;BME280;8335;42.646;23.380;2023-05-23T04:08:12;145686.38;;;16.66;85.70
8280;BME280;8335;42.646;23.380;2023-05-23T04:10:40;145865.06;;;17.39;83.02
8280;BME280;8335;42.646;23.380;2023-05-23T04:13:06;146045.09;;;18.12;79.99
8280;BME280;8335;42.646;23.380;2023-05-23T04:15:34;146192.75;;;18.72;74.16
8280;BME280;8335;42.646;23.380;2023-05-23T04:18:00;146351.66;;;19.37;70.96
8280;BME280;8335;42.646;23.380;2023-05-23T04:20:29;146371.69;;;19.45;68.63
8280;BME280;8335;42.646;23.380;2023-05-23T04:22:56;146415.53;;;19.63;68.12
8280;BME280;8335;42.646;23.380;2023-05-23T04:25:23;146438.09;;;19.72;66.63
8280;BME280;8335;42.646;23.380;2023-05-23T04:27:50;146399.19;;;19.56;66.64
8280;BME280;8335;42.646;23.380;2023-05-23T04:30:18;146455.59;;;19.79;66.76
8280;BME280;8335;42.646;23.380;2023-05-23T04:32:46;146603.34;;;20.39;64.96
8280;BME280;8335;42.646;23.380;2023-05-23T04:35:13;146667.28;;;20.65;63.71
8280;BME280;8335;42.646;23.380;2023-05-23T04:37:41;146815.13;;;21.25;60.97
8280;BME280;8335;42.646;23.380;2023-05-23T04:40:10;146842.75;;;21.36;60.46
8280;BME280;8335;42.646;23.380;2023-05-23T04:42:38;146958.06;;;21.83;59.77
8280;BME280;8335;42.646;23.380;2023-05-23T04:45:07;146990.66;;;21.96;56.77
8280;BME280;8335;42.646;23.380;2023-05-23T04:47:35;147168.78;;;22.69;54.91
8280;BME280;8335;42.646;23.380;2023-05-23T04:50:02;147191.38;;;22.78;53.97
8280;BME280;8335;42.646;23.380;2023-05-23T04:52:29;147230.34;;;22.94;53.00
8280;BME280;8335;42.646;23.380;2023-05-23T04:54:59;147045.88;;;22.19;55.09
8280;BME280;8335;42.646;23.380;2023-05-23T04:57:26;146993.16;;;21.97;56.62
8280;BME280;8335;42.646;23.380;2023-05-23T04:59:53;146936.75;;;21.75;56.86
8280;BME280;8335;42.646;23.380;2023-05-23T05:02:21;146816.38;;;21.26;58.65
8280;BME280;8335;42.646;23.380;2023-05-23T05:04:47;146702.38;;;20.79;60.53
8280;BME280;8335;42.646;23.380;2023-05-23T05:07:14;146563.28;;;20.23;62.41
8280;BME280;8335;42.646;23.380;2023-05-23T05:09:41;146406.78;;;19.59;65.34
8280;BME280;8335;42.646;23.380;2023-05-23T05:12:09;146324.13;;;19.25;67.63
8280;BME280;8335;42.646;23.380;2023-05-23T05:14:36;146187.72;;;18.70;69.57
8280;BME280;8335;42.646;23.380;2023-05-23T05:17:03;146055.13;;;18.16;72.23
8280;BME280;8335;42.646;23.380;2023-05-23T05:19:29;146017.63;;;18.01;74.37
8280;BME280;8335;42.646;23.380;2023-05-23T05:21:56;146057.63;;;18.17;74.73
8280;BME280;8335;42.646;23.380;2023-05-23T05:24:24;146118.88;;;18.42;74.14
8280;BME280;8335;42.646;23.380;2023-05-23T05:26:52;146188.97;;;18.70;72.31
8280;BME280;8335;42.646;23.380;2023-05-23T05:29:20;146229.03;;;18.87;71.67
8280;BME280;8335;42.646;23.380;2023-05-23T05:31:47;146246.56;;;18.94;71.35
8280;BME280;8335;42.646;23.380;2023-05-23T05:34:14;146210.28;;;18.79;71.95
8280;BME280;8335;42.646;23.380;2023-05-23T05:36:41;146097.63;;;18.33;74.60
8280;BME280;8335;42.646;23.380;2023-05-23T05:39:12;146088.91;;;18.30;76.18
8280;BME280;8335;42.646;23.380;2023-05-23T05:41:39;146073.88;;;18.24;77.87
8280;BME280;8335;42.646;23.380;2023-05-23T05:44:07;146143.91;;;18.52;77.66
8280;BME280;8335;42.646;23.380;2023-05-23T05:46:35;146232.78;;;18.88;74.98
8280;BME280;8335;42.646;23.380;2023-05-23T05:49:02;146291.56;;;19.12;74.17
8280;BME280;8335;42.646;23.380;2023-05-23T05:51:29;146528.22;;;20.09;71.90
8280;BME280;8335;42.646;23.380;2023-05-23T05:53:55;146807.63;;;21.22;66.63
8280;BME280;8335;42.646;23.380;2023-05-23T05:56:22;146996.91;;;21.99;62.74
8280;BME280;8335;42.646;23.380;2023-05-23T05:58:49;147286.81;;;23.17;59.77
8280;BME280;8335;42.646;23.380;2023-05-23T06:01:16;147583.19;;;24.37;53.62
8280;BME280;8335;42.646;23.380;2023-05-23T06:03:44;147809.31;;;25.29;51.22
8280;BME280;8335;42.646;23.380;2023-05-23T06:06:10;148072.09;;;26.35;48.78
8280;BME280;8335;42.646;23.380;2023-05-23T06:08:37;148287.34;;;27.22;47.44
8280;BME280;8335;42.646;23.380;2023-05-23T06:11:04;148045.72;;;26.24;49.72
8280;BME280;8335;42.646;23.380;2023-05-23T06:13:31;148031.88;;;26.19;49.38
8280;BME280;8335;42.646;23.380;2023-05-23T06:15:57;147936.34;;;25.80;49.80
8280;BME280;8335;42.646;23.380;2023-05-23T06:18:24;147912.38;;;25.70;49.29
8280;BME280;8335;42.646;23.380;2023-05-23T06:20:52;148039.41;;;26.22;49.09
8280;BME280;8335;42.646;23.380;2023-05-23T06:23:19;148257.13;;;27.10;47.77
8280;BME280;8335;42.646;23.380;2023-05-23T06:25:46;148374.13;;;27.57;46.22
8280;BME280;8335;42.646;23.380;2023-05-23T06:28:12;148508.88;;;28.12;44.51
8280;BME280;8335;42.646;23.380;2023-05-23T06:30:39;148697.84;;;28.88;42.70
8280;BME280;8335;42.646;23.380;2023-05-23T06:33:06;148660.06;;;28.73;42.23
8280;BME280;8335;42.646;23.380;2023-05-23T06:35:32;148508.88;;;28.12;44.57
8280;BME280;8335;42.646;23.380;2023-05-23T06:38:00;148423.28;;;27.77;44.35
8280;BME280;8335;42.646;23.380;2023-05-23T06:40:27;148433.38;;;27.81;44.39
8280;BME280;8335;42.646;23.380;2023-05-23T06:42:54;148462.28;;;27.93;43.86
8280;BME280;8335;42.646;23.380;2023-05-23T06:45:21;148644.94;;;28.67;42.75
8280;BME280;8335;42.646;23.380;2023-05-23T06:47:47;148702.84;;;28.90;41.56
8280;BME280;8335;42.646;23.380;2023-05-23T06:50:14;148738.19;;;29.04;41.69
8280;BME280;8335;42.646;23.380;2023-05-23T06:52:44;148718.03;;;28.96;41.34
8280;BME280;8335;42.646;23.380;2023-05-23T06:55:12;148844.00;;;29.47;40.72
8280;BME280;8335;42.646;23.380;2023-05-23T06:57:42;148753.31;;;29.11;40.96
8280;BME280;8335;42.646;23.380;2023-05-23T07:00:10;148677.69;;;28.80;41.19
8280;BME280;8335;42.646;23.380;2023-05-23T07:02:37;148728.09;;;29.00;40.59
8280;BME280;8335;42.646;23.380;2023-05-23T07:05:05;148753.31;;;29.11;40.47
8280;BME280;8335;42.646;23.380;2023-05-23T07:07:32;148815.00;;;29.36;40.75
8280;BME280;8335;42.646;23.380;2023-05-23T07:09:58;148896.97;;;29.69;40.16
8280;BME280;8335;42.646;23.380;2023-05-23T07:12:26;149000.38;;;30.10;40.24
8280;BME280;8335;42.646;23.380;2023-05-23T07:14:53;148953.69;;;29.92;40.00
8280;BME280;8335;42.646;23.380;2023-05-23T07:17:20;149009.19;;;30.14;39.47
8280;BME280;8335;42.646;23.380;2023-05-23T07:19:46;149023.06;;;30.20;38.95
8280;BME280;8335;42.646;23.380;2023-05-23T07:22:13;148980.19;;;30.02;38.99
8280;BME280;8335;42.646;23.380;2023-05-23T07:24:40;148944.88;;;29.88;39.58
8280;BME280;8335;42.646;23.380;2023-05-23T07:27:07;148839.00;;;29.45;41.11
8280;BME280;8335;42.646;23.380;2023-05-23T07:29:35;148942.38;;;29.87;39.42
8280;BME280;8335;42.646;23.380;2023-05-23T07:32:01;148835.22;;;29.44;40.49
8280;BME280;8335;42.646;23.380;2023-05-23T07:34:28;148794.88;;;29.27;41.52
8280;BME280;8335;42.646;23.380;2023-05-23T07:36:55;148900.75;;;29.70;40.03
8280;BME280;8335;42.646;23.380;2023-05-23T07:39:22;148915.88;;;29.76;40.12
8280;BME280;8335;42.646;23.380;2023-05-23T07:41:48;148971.34;;;29.99;39.67
8280;BME280;8335;42.646;23.380;2023-05-23T07:44:17;149134.00;;;30.64;39.67
8280;BME280;8335;42.646;23.380;2023-05-23T07:46:45;149147.94;;;30.70;38.27
8280;BME280;8335;42.646;23.380;2023-05-23T07:49:12;149189.56;;;30.87;39.12
8280;BME280;8335;42.646;23.380;2023-05-23T07:51:39;149183.25;;;30.84;38.85
8280;BME280;8335;42.646;23.380;2023-05-23T07:54:06;149260.19;;;31.15;38.11
8280;BME280;8335;42.646;23.380;2023-05-23T07:56:32;149358.63;;;31.55;37.77
8280;BME280;8335;42.646;23.380;2023-05-23T07:58:59;149465.91;;;31.98;36.60
8280;BME280;8335;42.646;23.380;2023-05-23T08:01:26;149516.41;;;32.19;35.71
8280;BME280;8335;42.646;23.380;2023-05-23T08:03:55;149531.56;;;32.25;36.09
8280;BME280;8335;42.646;23.380;2023-05-23T08:06:21;149398.97;;;31.71;36.32
8280;BME280;8335;42.646;23.380;2023-05-23T08:08:48;149393.94;;;31.69;36.86
8280;BME280;8335;42.646;23.380;2023-05-23T08:11:15;149458.38;;;31.95;36.25
8280;BME280;8335;42.646;23.380;2023-05-23T08:13:42;149566.94;;;32.39;35.64
8280;BME280;8335;42.646;23.380;2023-05-23T08:16:08;149487.34;;;32.07;36.96
8280;BME280;8335;42.646;23.380;2023-05-23T08:18:35;149463.41;;;31.97;36.54
8280;BME280;8335;42.646;23.380;2023-05-23T08:21:03;149563.16;;;32.38;37.19
8280;BME280;8335;42.646;23.380;2023-05-23T08:23:30;149596.00;;;32.51;37.11
8280;BME280;8335;42.646;23.380;2023-05-23T08:25:57;149736.13;;;33.07;35.43
8280;BME280;8335;42.646;23.380;2023-05-23T08:28:23;149751.31;;;33.13;34.87
8280;BME280;8335;42.646;23.380;2023-05-23T08:30:50;149621.22;;;32.61;35.11
8280;BME280;8335;42.646;23.380;2023-05-23T08:33:18;149571.97;;;32.41;35.47
8280;BME280;8335;42.646;23.380;2023-05-23T08:35:44;149537.84;;;32.27;35.58
8280;BME280;8335;42.646;23.380;2023-05-23T08:38:13;149479.81;;;32.04;36.25
8280;BME280;8335;42.646;23.380;2023-05-23T08:40:41;149419.25;;;31.80;36.64
8280;BME280;8335;42.646;23.380;2023-05-23T08:43:13;149444.47;;;31.90;35.70
8280;BME280;8335;42.646;23.380;2023-05-23T08:45:40;149377.53;;;31.63;36.00
8280;BME280;8335;42.646;23.380;2023-05-23T08:48:08;149304.38;;;31.33;36.66
8280;BME280;8335;42.646;23.380;2023-05-23T08:50:36;149327.06;;;31.42;36.82
8280;BME280;8335;42.646;23.380;2023-05-23T08:53:05;149271.53;;;31.20;36.99
8280;BME280;8335;42.646;23.380;2023-05-23T08:55:36;149164.31;;;30.77;36.13
8280;BME280;8335;42.646;23.380;2023-05-23T08:58:03;149059.63;;;30.34;38.63
8280;BME280;8335;42.646;23.380;2023-05-23T09:00:30;149115.09;;;30.57;38.16
8280;BME280;8335;42.646;23.380;2023-05-23T09:02:59;149091.16;;;30.47;37.73
8280;BME280;8335;42.646;23.380;2023-05-23T09:05:26;149181.97;;;30.84;36.70
8280;BME280;8335;42.646;23.380;2023-05-23T09:07:53;149281.69;;;31.24;36.47
8280;BME280;8335;42.646;23.380;2023-05-23T09:10:21;149392.69;;;31.69;35.45
8280;BME280;8335;42.646;23.380;2023-05-23T09:12:49;149563.16;;;32.38;34.73
8280;BME280;8335;42.646;23.380;2023-05-23T09:15:16;149305.63;;;31.34;34.40
8280;BME280;8335;42.646;23.380;2023-05-23T09:17:43;149346.00;;;31.50;35.05
8280;BME280;8335;42.646;23.380;2023-05-23T09:20:12;149386.41;;;31.66;35.54
8280;BME280;8335;42.646;23.380;2023-05-23T09:22:40;149465.91;;;31.98;30.91
8280;BME280;8335;42.646;23.380;2023-05-23T09:25:07;149566.94;;;32.39;31.64
8280;BME280;8335;42.646;23.380;2023-05-23T09:27:34;149636.38;;;32.67;30.16
8280;BME280;8335;42.646;23.380;2023-05-23T09:30:07;149617.44;;;32.59;28.38
8280;BME280;8335;42.646;23.380;2023-05-23T09:32:34;149640.16;;;32.69;27.58
8280;BME280;8335;42.646;23.380;2023-05-23T09:35:02;149666.69;;;32.79;28.19
8280;BME280;8335;42.646;23.380;2023-05-23T09:37:30;149611.09;;;32.57;27.07
8280;BME280;8335;42.646;23.380;2023-05-23T09:39:58;149585.88;;;32.47;27.94
8280;BME280;8335;42.646;23.380;2023-05-23T09:42:30;149564.44;;;32.38;28.81
8280;BME280;8335;42.646;23.380;2023-05-23T09:44:58;149441.97;;;31.89;29.92
8280;BME280;8335;42.646;23.380;2023-05-23T09:47:27;149387.66;;;31.67;30.14
8280;BME280;8335;42.646;23.380;2023-05-23T09:49:54;149031.91;;;30.23;30.94
8280;BME280;8335;42.646;23.380;2023-05-23T09:52:21;149062.13;;;30.35;32.36
8280;BME280;8335;42.646;23.380;2023-05-23T09:54:48;149134.00;;;30.64;31.00
8280;BME280;8335;42.646;23.380;2023-05-23T09:57:15;149155.53;;;30.73;31.20
8280;BME280;8335;42.646;23.380;2023-05-23T09:59:48;148983.94;;;30.04;29.01
8280;BME280;8335;42.646;23.380;2023-05-23T10:02:32;148881.84;;;29.63;30.62
8280;BME280;8335;42.646;23.380;2023-05-23T10:05:06;148816.28;;;29.36;31.45
8280;BME280;8335;42.646;23.380;2023-05-23T10:07:34;148681.47;;;28.82;32.81
8280;BME280;8335;42.646;23.380;2023-05-23T10:10:03;148715.53;;;28.95;31.98
8280;BME280;8335;42.646;23.380;2023-05-23T10:12:41;148607.16;;;28.51;32.83
8280;BME280;8335;42.646;23.380;2023-05-23T10:15:10;148710.44;;;28.93;33.05
8280;BME280;8335;42.646;23.380;2023-05-23T10:17:47;148745.72;;;29.08;32.06
8280;BME280;8335;42.646;23.380;2023-05-23T10:20:21;148775.97;;;29.20;31.75
8280;BME280;8335;42.646;23.380;2023-05-23T10:22:50;148678.94;;;28.81;32.04
8280;BME280;8335;42.646;23.380;2023-05-23T10:25:18;148710.44;;;28.93;31.05
8280;BME280;8335;42.646;23.380;2023-05-23T10:27:47;148608.41;;;28.52;31.81
8280;BME280;8335;42.646;23.380;2023-05-23T10:30:15;148592.03;;;28.45;32.92
8280;BME280;8335;42.646;23.380;2023-05-23T10:32:43;148513.91;;;28.14;31.93
8280;BME280;8335;42.646;23.380;2023-05-23T10:35:17;148406.91;;;27.70;32.57
8280;BME280;8335;42.646;23.380;2023-05-23T10:37:51;148332.63;;;27.40;30.85
8280;BME280;8335;42.646;23.380;2023-05-23T10:40:26;148243.28;;;27.04;32.49
8280;BME280;8335;42.646;23.380;2023-05-23T10:43:02;148158.94;;;26.70;33.39
8280;BME280;8335;42.646;23.380;2023-05-23T10:45:39;148153.91;;;26.68;33.32
8280;BME280;8335;42.646;23.380;2023-05-23T10:48:19;148150.16;;;26.67;33.63
8280;BME280;8335;42.646;23.380;2023-05-23T10:51:00;148087.25;;;26.41;35.06
8280;BME280;8335;42.646;23.380;2023-05-23T10:53:28;147909.88;;;25.69;33.75
8280;BME280;8335;42.646;23.380;2023-05-23T10:55:55;147848.31;;;25.44;33.52
8280;BME280;8335;42.646;23.380;2023-05-23T10:58:22;147805.56;;;25.27;34.82
8280;BME280;8335;42.646;23.380;2023-05-23T11:00:53;147781.69;;;25.17;36.01
8280;BME280;8335;42.646;23.380;2023-05-23T11:03:35;147662.28;;;24.69;36.91
8280;BME280;8335;42.646;23.380;2023-05-23T11:06:03;147607.03;;;24.47;36.48
8280;BME280;8335;42.646;23.380;2023-05-23T11:08:37;147549.22;;;24.23;36.53
8280;BME280;8335;42.646;23.380;2023-05-23T11:11:04;147491.41;;;24.00;37.27
8280;BME280;8335;42.646;23.380;2023-05-23T11:13:54;147476.41;;;23.94;39.69
8280;BME280;8335;42.646;23.380;2023-05-23T11:16:24;147477.66;;;23.94;42.14
8280;BME280;8335;42.646;23.380;2023-05-23T11:21:38;147387.19;;;23.57;37.83
8280;BME280;8335;42.646;23.380;2023-05-23T11:24:08;147363.34;;;23.48;38.26
8280;BME280;8335;42.646;23.380;2023-05-23T11:26:35;147412.34;;;23.68;39.94
8280;BME280;8335;42.646;23.380;2023-05-23T11:29:02;147343.25;;;23.40;36.77
8280;BME280;8335;42.646;23.380;2023-05-23T11:31:29;147334.50;;;23.36;38.34
8280;BME280;8335;42.646;23.380;2023-05-23T11:33:57;147246.66;;;23.00;37.97
8280;BME280;8335;42.646;23.380;2023-05-23T11:36:24;147245.38;;;23.00;39.53
8280;BME280;8335;42.646;23.380;2023-05-23T11:38:51;147270.47;;;23.10;40.56
8280;BME280;8335;42.646;23.380;2023-05-23T11:41:18;147311.88;;;23.27;40.27
8280;BME280;8335;42.646;23.380;2023-05-23T11:43:49;147301.88;;;23.23;40.00
8280;BME280;8335;42.646;23.380;2023-05-23T11:46:16;147304.38;;;23.24;39.02
8280;BME280;8335;42.646;23.380;2023-05-23T11:48:44;147280.50;;;23.14;37.82
8280;BME280;8335;42.646;23.380;2023-05-23T11:51:14;147319.44;;;23.30;38.96
8280;BME280;8335;42.646;23.380;2023-05-23T11:53:41;147274.25;;;23.12;38.68
8280;BME280;8335;42.646;23.380;2023-05-23T11:56:08;147237.84;;;22.97;38.15
8280;BME280;8335;42.646;23.380;2023-05-23T11:58:36;147198.91;;;22.81;39.43
8280;BME280;8335;42.646;23.380;2023-05-23T12:01:04;147193.91;;;22.79;37.98
8280;BME280;8335;42.646;23.380;2023-05-23T12:03:32;147244.09;;;22.99;39.36
8280;BME280;8335;42.646;23.380;2023-05-23T12:06:00;147252.91;;;23.03;39.50
8280;BME280;8335;42.646;23.380;2023-05-23T12:08:28;147197.66;;;22.80;39.27
8280;BME280;8335;42.646;23.380;2023-05-23T12:10:57;147171.31;;;22.70;40.45
8280;BME280;8335;42.646;23.380;2023-05-23T12:13:24;147156.25;;;22.64;40.04
8280;BME280;8335;42.646;23.380;2023-05-23T12:15:53;147187.63;;;22.76;40.66
8280;BME280;8335;42.646;23.380;2023-05-23T12:18:20;147197.66;;;22.80;40.11
8280;BME280;8335;42.646;23.380;2023-05-23T12:20:48;147186.38;;;22.76;41.94
8280;BME280;8335;42.646;23.380;2023-05-23T12:23:18;147129.91;;;22.53;39.56
8280;BME280;8335;42.646;23.380;2023-05-23T12:25:51;147239.09;;;22.97;39.40
8280;BME280;8335;42.646;23.380;2023-05-23T12:28:18;147280.50;;;23.14;39.75
8280;BME280;8335;42.646;23.380;2023-05-23T12:30:45;147305.63;;;23.24;40.99
8280;BME280;8335;42.646;23.380;2023-05-23T12:33:12;147274.25;;;23.12;38.50
8280;BME280;8335;42.646;23.380;2023-05-23T12:35:42;147278.00;;;23.13;37.93
8280;BME280;8335;42.646;23.380;2023-05-23T12:38:09;147264.22;;;23.08;39.56
8280;BME280;8335;42.646;23.380;2023-05-23T12:40:40;147224.03;;;22.91;40.33
8280;BME280;8335;42.646;23.380;2023-05-23T12:43:09;147195.16;;;22.79;37.16
8280;BME280;8335;42.646;23.380;2023-05-23T12:45:36;147205.19;;;22.84;37.48
8280;BME280;8335;42.646;23.380;2023-05-23T12:48:03;147190.13;;;22.77;38.50
8280;BME280;8335;42.646;23.380;2023-05-23T12:50:30;147178.84;;;22.73;38.63
8280;BME280;8335;42.646;23.380;2023-05-23T12:52:57;147212.78;;;22.87;38.48
8280;BME280;8335;42.646;23.380;2023-05-23T12:55:24;147260.44;;;23.06;37.44
8280;BME280;8335;42.646;23.380;2023-05-23T12:57:51;147293.06;;;23.19;38.00
8280;BME280;8335;42.646;23.380;2023-05-23T13:00:20;147343.25;;;23.40;37.22
8280;BME280;8335;42.646;23.380;2023-05-23T13:02:47;147377.16;;;23.53;36.62
8280;BME280;8335;42.646;23.380;2023-05-23T13:05:14;147401.03;;;23.63;36.32